Quarry, North Carolina
Current Conditions -  °F | °C
As of 1:55 AM on Thursday 23 Oct 2014 (Local Time) from KUKF Reporting Station
Clear Clear  
Wind Chill: 42°   Ceiling: Unl
Heat Index: 45°   Visibility: 10mi
Dew Point: 37°   Wind: 5mph
Humidity: 76%   Direction: 300°WNW
Pressure: 30.14"   Gusts: NA
Location:  36.1997°N, 81.0764°W
Report Text: KUKF 230555Z AUTO 30004KT 10SM CLR 07/03 A3014 RMK AO2
Loading
Personal Weather Stations






























Interactive Weather Map
Tropical Storm Tracking
New forecast layout! Learn more

10-Day Weather Forecast

Advertisements
Track Severe Weather on mobile